createdAt,value
2019-03-13T00:00:03.642Z,8.30
2019-03-13T00:02:34.930Z,8.40
2019-03-13T00:05:02.142Z,8.40
2019-03-13T00:07:28.757Z,8.40
2019-03-13T00:09:55.473Z,8.40
2019-03-13T00:12:22.167Z,8.40
2019-03-13T00:14:48.740Z,8.40
2019-03-13T00:17:15.545Z,8.40
2019-03-13T00:19:42.232Z,8.30
2019-03-13T00:22:08.959Z,8.40
2019-03-13T00:24:35.607Z,8.30
2019-03-13T00:27:02.212Z,8.30
2019-03-13T00:29:29.176Z,8.30
2019-03-13T00:31:55.871Z,8.30
2019-03-13T00:34:23.771Z,8.30
2019-03-13T00:36:50.402Z,8.30
2019-03-13T00:39:17.063Z,8.30
2019-03-13T00:41:44.416Z,8.30
2019-03-13T00:44:12.221Z,8.30
2019-03-13T00:46:39.312Z,8.30
2019-03-13T00:49:05.914Z,8.30
2019-03-13T00:51:32.524Z,8.20
2019-03-13T00:53:59.083Z,8.20
2019-03-13T00:56:25.782Z,8.20
2019-03-13T00:58:52.373Z,8.30
2019-03-13T01:01:37.793Z,8.20
2019-03-13T01:04:12.282Z,8.20
2019-03-13T01:06:41.988Z,8.20
2019-03-13T01:09:08.774Z,8.20
2019-03-13T01:11:35.807Z,8.20
2019-03-13T01:14:02.768Z,8.20
2019-03-13T01:16:31.464Z,8.20
2019-03-13T01:18:58.070Z,8.20
2019-03-13T01:21:24.777Z,8.20
2019-03-13T01:23:51.790Z,8.20
2019-03-13T01:26:18.549Z,8.20
2019-03-13T01:28:45.134Z,8.20
2019-03-13T01:31:27.895Z,8.20
2019-03-13T01:34:06.426Z,8.10
2019-03-13T01:36:33.046Z,8.10
2019-03-13T01:39:00.986Z,7.70
2019-03-13T01:41:27.990Z,8.10
2019-03-13T01:43:55.029Z,8.10
2019-03-13T01:46:21.733Z,8.10
2019-03-13T01:48:48.242Z,8.10
2019-03-13T01:51:15.415Z,8.10
2019-03-13T01:53:41.931Z,8.10
2019-03-13T01:56:08.681Z,8.10
2019-03-13T01:58:35.306Z,8.10
2019-03-13T02:01:01.959Z,8.10
2019-03-13T02:03:28.627Z,8.10
2019-03-13T02:05:58.252Z,8.00
2019-03-13T02:08:25.185Z,8.10
2019-03-13T02:10:51.897Z,8.00
2019-03-13T02:13:18.763Z,8.10
2019-03-13T02:15:45.743Z,8.00
2019-03-13T02:18:12.304Z,8.00
2019-03-13T02:20:38.974Z,7.90
2019-03-13T02:23:05.717Z,8.00
2019-03-13T02:25:32.305Z,8.00
2019-03-13T02:28:00.299Z,8.00
2019-03-13T02:30:28.191Z,8.00
2019-03-13T02:32:54.818Z,8.00
2019-03-13T02:35:21.424Z,8.00
2019-03-13T02:37:48.042Z,8.00
2019-03-13T02:40:14.606Z,8.00
2019-03-13T02:42:41.224Z,8.00
2019-03-13T02:45:07.793Z,8.00
2019-03-13T02:47:35.606Z,8.00
2019-03-13T02:50:07.040Z,8.00
2019-03-13T02:52:31.138Z,8.00
2019-03-13T02:54:57.779Z,8.00
2019-03-13T02:57:25.170Z,8.00
2019-03-13T02:59:51.767Z,8.00
2019-03-13T03:02:24.550Z,7.90
2019-03-13T03:04:51.281Z,7.90
2019-03-13T03:07:17.877Z,7.90
2019-03-13T03:09:44.616Z,8.00
2019-03-13T03:12:11.315Z,7.90
2019-03-13T03:14:38.044Z,7.90
2019-03-13T03:17:04.636Z,7.90
2019-03-13T03:19:31.334Z,7.90
2019-03-13T03:21:57.935Z,7.90
2019-03-13T03:24:24.534Z,7.90
2019-03-13T03:26:51.454Z,7.90
2019-03-13T03:29:18.098Z,7.90
2019-03-13T03:31:45.988Z,7.90
2019-03-13T03:34:14.329Z,7.90
2019-03-13T03:36:40.964Z,7.90
2019-03-13T03:39:07.730Z,7.90
2019-03-13T03:41:34.613Z,7.90
2019-03-13T03:44:03.079Z,7.90
2019-03-13T03:46:29.654Z,7.90
2019-03-13T03:48:56.297Z,7.90
2019-03-13T03:51:22.911Z,7.90
2019-03-13T03:53:49.475Z,7.90
2019-03-13T03:56:16.451Z,7.90
2019-03-13T03:58:43.049Z,7.90
2019-03-13T04:01:09.701Z,7.90
2019-03-13T04:03:36.284Z,7.90
2019-03-13T04:06:03.236Z,7.90
2019-03-13T04:08:31.410Z,7.90
2019-03-13T04:10:58.054Z,7.90
2019-03-13T04:13:24.723Z,7.90
2019-03-13T04:15:51.676Z,7.90
2019-03-13T04:18:19.399Z,7.80
2019-03-13T04:20:46.108Z,7.80
2019-03-13T04:23:12.745Z,7.80
2019-03-13T04:25:40.121Z,7.80
2019-03-13T04:28:06.709Z,7.80
2019-03-13T04:30:33.345Z,7.80
2019-03-13T04:33:00.368Z,7.90
2019-03-13T04:35:28.160Z,7.80
2019-03-13T04:37:54.784Z,7.80
2019-03-13T04:40:21.402Z,7.90
2019-03-13T04:42:48.044Z,7.80
2019-03-13T04:45:14.629Z,7.90
2019-03-13T04:47:41.247Z,7.80
2019-03-13T04:50:08.451Z,7.80
2019-03-13T04:52:35.115Z,7.90
2019-03-13T04:55:01.810Z,7.90
2019-03-13T04:57:28.374Z,7.90
2019-03-13T04:59:56.764Z,7.80
2019-03-13T05:02:23.384Z,7.90
2019-03-13T05:04:50.210Z,7.90
2019-03-13T05:07:18.303Z,7.90
2019-03-13T05:09:45.314Z,7.90
2019-03-13T05:12:12.071Z,7.90
2019-03-13T05:14:38.920Z,7.90
2019-03-13T05:17:05.525Z,7.90
2019-03-13T05:19:32.198Z,7.90
2019-03-13T05:21:59.057Z,7.90
2019-03-13T05:24:26.067Z,7.90
2019-03-13T05:26:52.864Z,7.90
2019-03-13T05:29:19.549Z,7.90
2019-03-13T05:31:46.287Z,7.90
2019-03-13T05:34:13.477Z,7.90
2019-03-13T05:36:40.126Z,7.90
2019-03-13T05:39:06.825Z,7.90
2019-03-13T05:41:33.454Z,7.90
2019-03-13T05:44:00.221Z,8.00
2019-03-13T05:46:26.981Z,7.90
2019-03-13T05:48:53.678Z,7.90
2019-03-13T05:51:20.273Z,7.80
2019-03-13T05:53:46.886Z,7.90
2019-03-13T05:56:13.590Z,8.00
2019-03-13T05:58:40.566Z,8.00
2019-03-13T06:01:07.516Z,8.00
2019-03-13T06:03:36.032Z,8.00
2019-03-13T06:06:02.609Z,8.00
2019-03-13T06:08:30.218Z,8.00
2019-03-13T06:10:56.972Z,8.00
2019-03-13T06:13:23.628Z,8.00
2019-03-13T06:15:50.658Z,8.00
2019-03-13T06:18:17.454Z,8.00
2019-03-13T06:20:44.212Z,8.00
2019-03-13T06:23:11.174Z,8.00
2019-03-13T06:25:37.838Z,8.00
2019-03-13T06:28:06.076Z,8.00
2019-03-13T06:30:33.778Z,8.00
2019-03-13T06:33:00.434Z,8.00
2019-03-13T06:35:28.897Z,8.00
2019-03-13T06:37:55.606Z,8.00
2019-03-13T06:40:24.183Z,8.00
2019-03-13T06:42:50.839Z,8.10
2019-03-13T06:45:17.538Z,8.10
2019-03-13T06:47:46.048Z,8.10
2019-03-13T06:50:12.564Z,8.10
2019-03-13T06:52:39.238Z,8.00
2019-03-13T06:55:06.230Z,8.10
2019-03-13T06:57:32.962Z,8.10
2019-03-13T07:00:32.486Z,8.10
2019-03-13T07:03:18.629Z,8.10
2019-03-13T07:05:54.711Z,8.10
2019-03-13T07:08:40.836Z,8.10
2019-03-13T07:11:23.849Z,8.10
2019-03-13T07:13:56.608Z,8.10
2019-03-13T07:16:41.597Z,8.20
2019-03-13T07:19:19.514Z,8.20
2019-03-13T07:22:17.714Z,8.20
2019-03-13T07:25:16.067Z,8.20
2019-03-13T07:27:55.574Z,8.20
2019-03-13T07:30:40.427Z,8.20
2019-03-13T07:33:38.515Z,8.20
2019-03-13T07:36:38.744Z,8.20
2019-03-13T07:39:14.260Z,8.20
2019-03-13T07:42:06.233Z,7.80
2019-03-13T07:44:55.378Z,8.20
2019-03-13T07:47:41.574Z,8.20
2019-03-13T07:50:14.774Z,8.20
2019-03-13T07:52:56.430Z,8.20
2019-03-13T07:55:40.395Z,8.30
2019-03-13T07:58:21.256Z,8.30
2019-03-13T08:01:16.227Z,8.30
2019-03-13T08:03:58.473Z,8.30
2019-03-13T08:06:50.517Z,8.30
2019-03-13T08:09:35.289Z,8.30
2019-03-13T08:12:39.828Z,8.30
2019-03-13T08:15:26.009Z,8.30
2019-03-13T08:18:15.708Z,8.40
2019-03-13T08:21:01.929Z,8.40
2019-03-13T08:23:34.460Z,8.40
2019-03-13T08:26:18.763Z,8.40
2019-03-13T08:28:50.475Z,8.40
2019-03-13T08:31:31.216Z,8.40
2019-03-13T09:03:28.628Z,8.50
2019-03-13T09:06:20.729Z,8.60
2019-03-13T09:09:05.094Z,8.60
2019-03-13T09:11:54.514Z,8.60
2019-03-13T09:14:39.640Z,8.60
2019-03-13T09:17:43.921Z,8.60
2019-03-13T09:20:18.455Z,8.60
2019-03-13T09:23:07.733Z,8.70
2019-03-13T09:25:53.918Z,8.70
2019-03-13T09:28:29.771Z,8.70
2019-03-13T09:31:14.757Z,8.70
2019-03-13T09:33:57.015Z,8.70
2019-03-13T09:36:40.608Z,8.70
2019-03-13T09:39:23.678Z,8.70
2019-03-13T09:42:00.387Z,8.70
2019-03-13T09:44:41.341Z,8.80
2019-03-13T09:50:11.869Z,8.80
2019-03-13T09:52:56.959Z,8.80
2019-03-13T09:55:36.522Z,8.80
2019-03-13T09:58:25.656Z,8.80
2019-03-13T10:01:01.131Z,8.90
2019-03-13T10:03:59.359Z,8.90
2019-03-13T10:06:55.335Z,8.90
2019-03-13T10:09:44.433Z,8.90
2019-03-13T10:12:36.221Z,8.90
2019-03-13T10:15:11.870Z,8.90
2019-03-13T10:17:57.851Z,8.90
2019-03-13T10:20:31.071Z,8.90
2019-03-13T10:23:29.376Z,9.00
2019-03-13T10:26:04.712Z,9.00
2019-03-13T10:28:56.750Z,9.00
2019-03-13T10:31:30.341Z,9.00
2019-03-13T10:34:19.508Z,9.00
2019-03-13T10:37:08.575Z,9.00
2019-03-13T10:39:54.630Z,9.00
2019-03-13T10:42:43.824Z,9.00
2019-03-13T10:45:16.301Z,8.70
2019-03-13T10:48:11.554Z,9.10
2019-03-13T10:50:57.724Z,9.10
2019-03-13T10:53:31.459Z,9.10
2019-03-13T10:56:16.268Z,9.10
2019-03-13T10:59:08.504Z,9.10
2019-03-13T11:01:57.524Z,9.20
2019-03-13T11:04:40.906Z,9.10
2019-03-13T11:07:28.731Z,9.10
2019-03-13T11:10:16.285Z,9.10
2019-03-13T11:12:51.666Z,9.20
2019-03-13T11:15:43.616Z,9.20
2019-03-13T11:18:39.041Z,9.20
2019-03-13T11:21:13.992Z,9.20
2019-03-13T11:23:56.574Z,9.20
2019-03-13T11:29:27.662Z,9.30
2019-03-13T11:32:03.533Z,9.20
2019-03-13T11:34:45.759Z,9.30
2019-03-13T11:37:31.807Z,9.30
2019-03-13T11:40:24.189Z,9.30
2019-03-13T11:43:08.975Z,9.30
2019-03-13T11:46:04.518Z,9.30
2019-03-13T11:48:42.385Z,9.30
2019-03-13T11:51:31.584Z,9.30
2019-03-13T11:54:18.009Z,9.40
2019-03-13T11:57:04.644Z,9.40
2019-03-13T12:00:02.979Z,9.40
2019-03-13T12:02:49.009Z,9.40
2019-03-13T12:05:35.335Z,9.40
2019-03-13T12:08:20.568Z,9.40
2019-03-13T12:11:06.748Z,9.50
2019-03-13T12:13:44.522Z,9.50
2019-03-13T12:16:27.009Z,9.50
2019-03-13T12:19:22.051Z,9.50
2019-03-13T12:21:57.036Z,9.30
2019-03-13T12:24:38.252Z,9.60
2019-03-13T12:27:16.901Z,9.60
2019-03-13T12:30:02.351Z,9.60
2019-03-13T12:32:45.239Z,9.60
2019-03-13T12:35:36.616Z,9.60
2019-03-13T12:38:21.801Z,9.70
2019-03-13T12:41:26.175Z,9.70
2019-03-13T12:44:12.957Z,9.70
2019-03-13T12:46:51.312Z,9.70
2019-03-13T12:49:40.402Z,9.70
2019-03-13T12:52:29.389Z,9.80
2019-03-13T12:55:08.917Z,9.80
2019-03-13T12:58:02.489Z,9.80
2019-03-13T13:01:00.839Z,9.80
2019-03-13T13:03:47.311Z,9.80
2019-03-13T13:06:39.470Z,9.80
2019-03-13T13:09:28.915Z,9.90
2019-03-13T13:12:20.932Z,9.90
2019-03-13T13:15:07.327Z,9.90
2019-03-13T13:17:57.280Z,9.90
2019-03-13T13:20:24.366Z,9.90
2019-03-13T13:22:52.155Z,9.90
2019-03-13T13:25:18.917Z,9.90
2019-03-13T13:27:54.501Z,10.00
2019-03-13T13:30:21.078Z,10.00
2019-03-13T13:32:47.686Z,10.00
2019-03-13T13:35:16.212Z,10.00
2019-03-13T13:37:42.819Z,10.00
2019-03-13T13:40:09.430Z,10.00
2019-03-13T13:42:36.038Z,10.00
2019-03-13T13:45:02.845Z,10.00
2019-03-13T13:47:31.036Z,10.10
2019-03-13T13:49:59.878Z,10.10
2019-03-13T13:52:26.166Z,10.10
2019-03-13T13:54:54.224Z,10.10
2019-03-13T13:57:23.734Z,10.10
2019-03-13T13:59:52.220Z,10.10
2019-03-13T14:02:19.167Z,10.10
2019-03-13T14:04:45.880Z,10.10
2019-03-13T14:07:13.242Z,10.10
2019-03-13T14:09:40.266Z,10.20
2019-03-13T14:12:08.161Z,10.20
2019-03-13T14:14:34.835Z,10.20
2019-03-13T14:17:01.442Z,10.20
2019-03-13T14:19:28.275Z,10.20
2019-03-13T14:21:54.923Z,10.20
2019-03-13T14:24:21.566Z,10.20
2019-03-13T14:26:48.164Z,10.20
2019-03-13T14:29:16.164Z,10.20
2019-03-13T14:31:42.705Z,10.10
2019-03-13T14:34:09.291Z,10.20
2019-03-13T14:36:35.992Z,10.20
2019-03-13T14:39:03.651Z,10.20
2019-03-13T14:41:30.319Z,10.30
2019-03-13T14:43:56.980Z,10.30
2019-03-13T14:46:23.579Z,10.30
2019-03-13T14:48:51.532Z,10.30
2019-03-13T14:51:18.268Z,10.30
2019-03-13T14:53:45.067Z,10.30
2019-03-13T14:56:11.792Z,10.30
2019-03-13T14:58:38.696Z,10.30
2019-03-13T15:01:05.391Z,10.30
2019-03-13T15:03:32.236Z,10.40
2019-03-13T15:08:38.053Z,10.60
2019-03-13T15:11:04.799Z,10.40
2019-03-13T15:13:31.589Z,10.40
2019-03-13T15:15:58.625Z,10.40
2019-03-13T15:18:25.367Z,10.40
2019-03-13T15:20:52.103Z,10.40
2019-03-13T15:23:18.685Z,10.40
2019-03-13T15:25:45.282Z,10.40
2019-03-13T15:28:12.041Z,10.50
2019-03-13T15:30:38.855Z,10.50
2019-03-13T15:33:05.697Z,10.50
2019-03-13T15:35:32.303Z,10.50
2019-03-13T15:37:59.278Z,10.50
2019-03-13T15:40:26.414Z,10.40
2019-03-13T15:42:54.157Z,10.50
2019-03-13T15:45:20.898Z,10.50
2019-03-13T15:47:47.699Z,10.50
2019-03-13T15:50:14.677Z,10.50
2019-03-13T15:52:44.622Z,10.50
2019-03-13T15:55:11.217Z,10.50
2019-03-13T15:57:38.209Z,10.50
2019-03-13T16:00:04.859Z,10.50
2019-03-13T16:02:31.590Z,10.50
2019-03-13T16:04:59.474Z,10.50
2019-03-13T16:07:26.157Z,10.50
2019-03-13T16:09:52.730Z,10.50
2019-03-13T16:12:19.351Z,10.50
2019-03-13T16:14:45.998Z,10.60
2019-03-13T16:17:13.037Z,10.50
2019-03-13T16:19:39.710Z,10.50
2019-03-13T16:22:07.478Z,10.50
2019-03-13T16:24:34.353Z,10.60
2019-03-13T16:27:01.014Z,10.50
2019-03-13T16:29:30.815Z,10.50
2019-03-13T16:31:56.669Z,10.50
2019-03-13T16:34:23.433Z,10.50
2019-03-13T16:36:50.267Z,10.50
2019-03-13T16:39:17.144Z,10.50
2019-03-13T16:41:45.002Z,10.50
2019-03-13T16:44:11.726Z,10.50
2019-03-13T16:46:38.545Z,10.50
2019-03-13T16:49:11.111Z,10.50
2019-03-13T16:51:36.604Z,10.50
2019-03-13T16:54:05.246Z,10.50
2019-03-13T16:56:31.836Z,10.50
2019-03-13T16:58:59.161Z,10.50
2019-03-13T17:01:26.304Z,10.50
2019-03-13T17:03:53.329Z,10.50
2019-03-13T17:06:20.120Z,10.50
2019-03-13T17:08:46.954Z,10.50
2019-03-13T17:11:13.764Z,10.50
2019-03-13T17:13:40.642Z,10.50
2019-03-13T17:16:07.249Z,10.50
2019-03-13T17:18:33.853Z,10.50
2019-03-13T17:21:01.053Z,10.50
2019-03-13T17:23:27.687Z,10.50
2019-03-13T17:25:54.264Z,10.50
2019-03-13T17:28:20.853Z,10.20
2019-03-13T17:30:47.826Z,10.50
2019-03-13T17:35:53.675Z,10.40
2019-03-13T17:38:20.531Z,10.50
2019-03-13T17:40:47.529Z,10.50
2019-03-13T17:43:15.745Z,10.50
2019-03-13T17:45:42.382Z,10.50
2019-03-13T17:48:09.943Z,10.50
2019-03-13T17:50:36.519Z,10.40
2019-03-13T17:53:03.320Z,10.50
2019-03-13T17:55:30.060Z,10.50
2019-03-13T17:57:57.344Z,10.50
2019-03-13T18:00:25.419Z,10.50
2019-03-13T18:02:52.361Z,10.50
2019-03-13T18:05:19.047Z,10.50
2019-03-13T18:07:45.681Z,10.20
2019-03-13T18:10:12.504Z,10.40
2019-03-13T18:12:39.110Z,10.40
2019-03-13T18:15:06.088Z,10.40
2019-03-13T18:17:32.707Z,10.40
2019-03-13T18:20:01.255Z,10.40
2019-03-13T18:22:29.702Z,10.40
2019-03-13T18:24:56.337Z,10.40
2019-03-13T18:27:23.761Z,10.40
2019-03-13T18:29:50.421Z,10.40
2019-03-13T18:32:17.124Z,10.40
2019-03-13T18:34:44.026Z,10.00
2019-03-13T18:37:11.122Z,10.40
2019-03-13T18:39:37.784Z,10.40
2019-03-13T18:42:04.347Z,10.40
2019-03-13T18:44:30.987Z,10.30
2019-03-13T18:47:02.368Z,10.30
2019-03-13T18:49:29.083Z,10.30
2019-03-13T18:51:55.708Z,10.30
2019-03-13T18:54:22.512Z,10.30
2019-03-13T18:56:49.200Z,10.30
2019-03-13T18:59:25.183Z,10.30
2019-03-13T19:01:55.053Z,10.30
2019-03-13T19:04:21.701Z,10.30
2019-03-13T19:06:48.290Z,10.20
2019-03-13T19:09:14.884Z,10.10
2019-03-13T19:11:41.912Z,10.20
2019-03-13T19:14:08.855Z,10.20
2019-03-13T19:16:35.524Z,10.20
2019-03-13T19:19:02.225Z,10.20
2019-03-13T19:21:28.959Z,10.20
2019-03-13T19:23:55.577Z,10.20
2019-03-13T19:26:23.295Z,10.20
2019-03-13T19:28:49.916Z,10.20
2019-03-13T19:31:16.959Z,10.10
2019-03-13T19:33:43.648Z,10.10
2019-03-13T19:36:10.300Z,10.10
2019-03-13T19:38:37.605Z,10.10
2019-03-13T19:41:04.955Z,9.90
2019-03-13T19:43:31.560Z,10.10
2019-03-13T19:45:58.471Z,10.10
2019-03-13T19:48:25.420Z,10.10
2019-03-13T19:50:52.165Z,10.10
2019-03-13T19:53:18.829Z,10.00
2019-03-13T19:55:45.716Z,10.00
2019-03-13T19:58:12.373Z,10.00
2019-03-13T20:00:39.017Z,10.00
2019-03-13T20:03:08.190Z,10.00
2019-03-13T20:05:44.901Z,10.00
2019-03-13T20:08:03.153Z,10.00
2019-03-13T20:10:29.790Z,10.00
2019-03-13T20:12:56.525Z,10.00
2019-03-13T20:15:23.299Z,10.00
2019-03-13T20:17:50.288Z,9.90
2019-03-13T20:20:16.918Z,9.90
2019-03-13T20:22:43.510Z,9.90
2019-03-13T20:25:10.226Z,9.90
2019-03-13T20:27:36.854Z,9.90
2019-03-13T20:30:03.869Z,9.90
2019-03-13T20:32:30.557Z,9.90
2019-03-13T20:34:57.266Z,9.80
2019-03-13T20:37:24.047Z,9.60
2019-03-13T20:39:50.753Z,9.90
2019-03-13T20:42:17.463Z,9.90
2019-03-13T20:44:44.075Z,9.90
2019-03-13T20:47:12.494Z,9.80
2019-03-13T20:49:40.210Z,9.80
2019-03-13T20:52:06.976Z,9.80
2019-03-13T20:54:33.569Z,9.80
2019-03-13T20:57:00.154Z,9.80
2019-03-13T20:59:26.874Z,9.80
2019-03-13T21:01:53.619Z,9.80
2019-03-13T21:04:21.347Z,9.80
2019-03-13T21:06:48.037Z,9.80
2019-03-13T21:09:14.631Z,9.80
2019-03-13T21:11:41.222Z,9.80
2019-03-13T21:14:11.488Z,9.80
2019-03-13T21:16:39.378Z,9.80
2019-03-13T21:19:05.934Z,9.70
2019-03-13T21:21:33.234Z,9.70
2019-03-13T21:23:59.921Z,9.70
2019-03-13T21:26:26.720Z,9.70
2019-03-13T21:28:53.332Z,9.70
2019-03-13T21:31:21.374Z,9.70
2019-03-13T21:33:48.073Z,9.70
2019-03-13T21:36:14.859Z,9.70
2019-03-13T21:38:41.494Z,9.70
2019-03-13T21:41:08.125Z,9.70
2019-03-13T21:43:34.699Z,9.70
2019-03-13T21:46:01.378Z,9.50
2019-03-13T21:48:27.983Z,9.70
2019-03-13T21:50:54.556Z,9.70
2019-03-13T21:53:21.291Z,9.70
2019-03-13T21:55:48.370Z,9.70
2019-03-13T21:58:14.981Z,9.70
2019-03-13T22:00:41.548Z,9.70
2019-03-13T22:03:08.178Z,9.70
2019-03-13T22:05:34.866Z,9.70
2019-03-13T22:08:03.364Z,9.70
2019-03-13T22:10:29.938Z,9.70
2019-03-13T22:12:56.637Z,9.70
2019-03-13T22:15:23.601Z,9.70
2019-03-13T22:17:52.028Z,9.70
2019-03-13T22:20:18.743Z,9.70
2019-03-13T22:22:46.838Z,9.70
2019-03-13T22:25:14.682Z,9.70
2019-03-13T22:27:41.247Z,9.70
2019-03-13T22:30:08.107Z,9.70
2019-03-13T22:32:36.605Z,9.70
2019-03-13T22:35:03.411Z,9.70
2019-03-13T22:37:30.109Z,9.70
2019-03-13T22:39:56.873Z,9.70
2019-03-13T22:42:24.695Z,9.70
2019-03-13T22:44:51.405Z,9.70
2019-03-13T22:47:17.993Z,9.70
2019-03-13T22:49:44.673Z,9.70
2019-03-13T22:52:11.317Z,9.70
2019-03-13T22:54:37.960Z,9.70
2019-03-13T22:57:04.667Z,9.70
2019-03-13T22:59:31.248Z,9.70
2019-03-13T23:01:57.833Z,9.70
2019-03-13T23:04:24.470Z,9.60
2019-03-13T23:06:51.220Z,9.70
2019-03-13T23:09:17.912Z,9.70
2019-03-13T23:11:44.613Z,9.60
2019-03-13T23:14:11.446Z,9.60
2019-03-13T23:16:39.550Z,9.70
2019-03-13T23:19:06.970Z,9.60
2019-03-13T23:21:33.616Z,9.60
2019-03-13T23:24:00.319Z,9.60
2019-03-13T23:26:27.004Z,9.60
2019-03-13T23:28:53.819Z,9.60
2019-03-13T23:31:22.558Z,9.60
2019-03-13T23:33:50.238Z,9.60
2019-03-13T23:36:16.820Z,9.60
2019-03-13T23:38:43.546Z,9.60
2019-03-13T23:41:10.163Z,9.60
2019-03-13T23:43:37.160Z,9.60
2019-03-13T23:46:03.783Z,9.60
2019-03-13T23:48:30.406Z,9.60
2019-03-13T23:50:57.163Z,9.60
2019-03-13T23:53:23.858Z,9.60
2019-03-13T23:55:50.436Z,9.60
2019-03-13T23:58:17.444Z,9.60
